Time;durP1;ratioP1;P1;durP2;ratioP2;P2;SDS_P1;SDS_P2;PMS_P1;PMS_P2;Temp;Humidity;BMP_temperature;BMP_pressure;BME280_temperature;BME280_humidity;BME280_pressure;Samples;Min_cycle;Max_cycle;Signal;HPM_P1;HPM_P2
2022/09/05 00:00:08;;;;;;;;;;;17.50;99.90;;;;;;5073525;28;19908;-75
2022/09/05 00:02:40;;;;;;;;;;;17.40;99.90;;;;;;5072801;28;19921;-75
2022/09/05 00:05:08;;;;;;;;;;;17.40;99.90;;;;;;5073538;28;19942;-74
2022/09/05 00:07:52;;;;;;;;;;;17.40;99.90;;;;;;5072952;28;19915;-76
2022/09/05 00:10:18;;;;;;;;;;;17.40;99.90;;;;;;5073889;28;19909;-74
2022/09/05 00:12:44;;;;;;;;;;;17.40;99.90;;;;;;5072780;28;20313;-75
2022/09/05 00:15:28;;;;;;;;;;;17.40;99.90;;;;;;5073243;28;20374;-76
2022/09/05 00:18:13;;;;;;;;;;;17.40;99.90;;;;;;5073389;28;19969;-78
2022/09/05 00:20:41;;;;;;;;;;;17.40;99.90;;;;;;5071428;28;19912;-81
2022/09/05 00:23:27;;;;;;;;;;;17.40;99.90;;;;;;5073259;28;19978;-81
2022/09/05 00:26:12;;;;;;;;;;;17.30;99.90;;;;;;5073610;28;20007;-76
2022/09/05 00:29:05;;;;;;;;;;;17.20;99.90;;;;;;5071628;28;19934;-76
2022/09/05 00:31:40;;;;;;;;;;;17.20;99.90;;;;;;5072630;28;20353;-77
2022/09/05 00:34:24;;;;;;;;;;;17.20;99.90;;;;;;5072898;28;19913;-76
2022/09/05 00:36:54;;;;;;;;;;;17.20;99.90;;;;;;5072823;28;20011;-77
2022/09/05 00:39:25;;;;;;;;;;;17.20;99.90;;;;;;5071691;28;19963;-77
2022/09/05 00:41:53;;;;;;;;;;;17.20;99.90;;;;;;5071594;28;20383;-77
2022/09/05 00:44:21;;;;;;;;;;;17.20;99.90;;;;;;5073064;28;19909;-77
2022/09/05 00:46:55;;;;;;;;;;;17.10;99.90;;;;;;5072002;28;20361;-77
2022/09/05 00:49:32;;;;;;;;;;;17.10;99.90;;;;;;5073055;28;19915;-77
2022/09/05 00:51:57;;;;;;;;;;;17.10;99.90;;;;;;5073251;28;19908;-77
2022/09/05 00:54:30;;;;;;;;;;;17.00;99.90;;;;;;5072445;28;19919;-76
2022/09/05 00:57:14;;;;;;;;;;;17.00;99.90;;;;;;5071924;28;20376;-76
2022/09/05 00:59:46;;;;;;;;;;;17.00;99.90;;;;;;5072171;28;19908;-77
2022/09/05 01:02:11;;;;;;;;;;;16.90;99.90;;;;;;5072826;28;19916;-76
2022/09/05 01:04:48;;;;;;;;;;;16.90;99.90;;;;;;5072675;28;20246;-76
2022/09/05 01:07:33;;;;;;;;;;;16.90;99.90;;;;;;5072774;28;20381;-75
2022/09/05 01:10:02;;;;;;;;;;;16.80;99.90;;;;;;5071618;28;19909;-76
2022/09/05 01:12:40;;;;;;;;;;;16.80;99.90;;;;;;5072017;28;19909;-76
2022/09/05 01:15:10;;;;;;;;;;;16.70;99.90;;;;;;5072194;28;20357;-76
2022/09/05 01:17:45;;;;;;;;;;;16.70;99.90;;;;;;5070777;28;19954;-75
2022/09/05 01:20:20;;;;;;;;;;;16.60;99.90;;;;;;5072241;28;19908;-76
2022/09/05 01:22:48;;;;;;;;;;;16.60;99.90;;;;;;5071877;28;19917;-76
2022/09/05 01:25:33;;;;;;;;;;;16.60;99.90;;;;;;5072827;28;19908;-77
2022/09/05 01:27:59;;;;;;;;;;;16.50;99.90;;;;;;5072718;28;20010;-75
2022/09/05 01:30:29;;;;;;;;;;;16.50;99.90;;;;;;5072543;28;19913;-76
2022/09/05 01:32:58;;;;;;;;;;;16.40;99.90;;;;;;5072306;28;20312;-76
2022/09/05 01:35:26;;;;;;;;;;;16.40;99.90;;;;;;5072544;28;20007;-76
2022/09/05 01:37:55;;;;;;;;;;;16.30;99.90;;;;;;5072144;28;19908;-75
2022/09/05 01:40:28;;;;;;;;;;;16.30;99.90;;;;;;5074402;28;19966;-75
2022/09/05 01:43:12;;;;;;;;;;;16.30;99.90;;;;;;5076374;28;20384;-75
2022/09/05 01:45:53;;;;;;;;;;;16.30;99.90;;;;;;5075495;28;19912;-75
2022/09/05 01:48:37;;;;;;;;;;;16.20;99.90;;;;;;5076148;28;19909;-75
2022/09/05 01:51:08;;;;;;;;;;;16.20;99.90;;;;;;5075716;28;19912;-76
2022/09/05 01:53:37;;;;;;;;;;;16.20;99.90;;;;;;5075195;28;19908;-75
2022/09/05 01:56:02;;;;;;;;;;;16.10;99.90;;;;;;5075841;28;19958;-75
2022/09/05 01:58:48;;;;;;;;;;;16.10;99.90;;;;;;5075621;28;19999;-75
2022/09/05 02:01:32;;;;;;;;;;;16.10;99.90;;;;;;5064452;28;20058;-75
2022/09/05 02:04:01;;;;;;;;;;;16.00;99.90;;;;;;5075886;28;19913;-75
2022/09/05 02:06:30;;;;;;;;;;;16.00;99.90;;;;;;5074348;28;19909;-75
2022/09/05 02:09:14;;;;;;;;;;;16.00;99.90;;;;;;5075339;28;20378;-75
2022/09/05 02:11:43;;;;;;;;;;;15.90;99.90;;;;;;5075040;28;19908;-75
2022/09/05 02:14:18;;;;;;;;;;;15.90;99.90;;;;;;5075726;28;19912;-75
2022/09/05 02:16:44;;;;;;;;;;;15.70;99.90;;;;;;5075140;28;19916;-74
2022/09/05 02:19:13;;;;;;;;;;;15.70;99.90;;;;;;5074404;28;19908;-75
2022/09/05 02:21:39;;;;;;;;;;;15.60;99.90;;;;;;5075015;28;19916;-75
2022/09/05 02:24:16;;;;;;;;;;;15.50;99.90;;;;;;5075900;28;20371;-75
2022/09/05 02:26:50;;;;;;;;;;;15.40;99.90;;;;;;5074686;28;19915;-74
2022/09/05 02:29:24;;;;;;;;;;;15.30;99.90;;;;;;5075289;28;20361;-75
2022/09/05 02:31:51;;;;;;;;;;;15.30;99.90;;;;;;5074925;28;19931;-75
2022/09/05 02:34:29;;;;;;;;;;;15.30;99.90;;;;;;5075037;28;19909;-75
2022/09/05 02:37:04;;;;;;;;;;;15.30;99.90;;;;;;5074561;28;19954;-75
2022/09/05 02:39:29;;;;;;;;;;;15.30;99.90;;;;;;5073706;28;19954;-75
2022/09/05 02:41:59;;;;;;;;;;;15.30;99.90;;;;;;5074610;28;20019;-76
2022/09/05 02:44:32;;;;;;;;;;;15.30;99.90;;;;;;5074919;28;20309;-75
2022/09/05 02:47:10;;;;;;;;;;;15.20;99.90;;;;;;5073835;28;19944;-76
2022/09/05 02:50:00;;;;;;;;;;;15.20;99.90;;;;;;5074306;28;19908;-76
2022/09/05 02:52:29;;;;;;;;;;;15.30;99.90;;;;;;5074660;28;20357;-76
2022/09/05 02:54:56;;;;;;;;;;;15.20;99.90;;;;;;5074215;28;19908;-76
2022/09/05 02:57:42;;;;;;;;;;;15.20;99.90;;;;;;5075311;28;19908;-75
2022/09/05 03:00:11;;;;;;;;;;;15.30;99.90;;;;;;5075055;28;19908;-76
2022/09/05 03:03:15;;;;;;;;;;;15.30;99.90;;;;;;5072858;28;19916;-76
2022/09/05 03:05:58;;;;;;;;;;;15.30;99.90;;;;;;5051877;28;20046;-75
2022/09/05 03:08:26;;;;;;;;;;;15.30;99.90;;;;;;5052279;28;19967;-76
2022/09/05 03:11:08;;;;;;;;;;;15.30;99.90;;;;;;5051642;28;20357;-76
2022/09/05 03:13:42;;;;;;;;;;;15.30;99.90;;;;;;5051873;28;19954;-77
2022/09/05 03:16:28;;;;;;;;;;;15.20;99.90;;;;;;5035384;28;19908;-76
2022/09/05 03:18:54;;;;;;;;;;;15.20;99.90;;;;;;4992232;28;19993;-76
2022/09/05 03:21:19;;;;;;;;;;;15.20;99.90;;;;;;4992936;28;20005;-76
2022/09/05 03:24:00;;;;;;;;;;;15.10;99.90;;;;;;4991885;28;19960;-76
2022/09/05 03:26:44;;;;;;;;;;;15.20;99.90;;;;;;4992748;28;19953;-76
2022/09/05 03:29:15;;;;;;;;;;;15.20;99.90;;;;;;4992697;28;19910;-74
2022/09/05 03:31:56;;;;;;;;;;;15.10;99.90;;;;;;4992070;28;19917;-74
2022/09/05 03:34:21;;;;;;;;;;;15.10;99.90;;;;;;4992868;28;20330;-75
2022/09/05 03:37:05;;;;;;;;;;;15.10;99.90;;;;;;5017446;28;19910;-75
2022/09/05 03:39:52;;;;;;;;;;;15.10;99.90;;;;;;5031421;28;20000;-75
2022/09/05 03:42:37;;;;;;;;;;;15.10;99.90;;;;;;5031076;28;19917;-75
2022/09/05 03:45:12;;;;;;;;;;;15.00;99.90;;;;;;5032201;28;20335;-75
2022/09/05 03:47:53;;;;;;;;;;;15.00;99.90;;;;;;5031275;28;19916;-75
2022/09/05 03:50:36;;;;;;;;;;;15.00;99.90;;;;;;5032065;28;20037;-75
2022/09/05 03:53:07;;;;;;;;;;;15.00;99.90;;;;;;5031581;28;19909;-75
2022/09/05 03:55:48;;;;;;;;;;;15.10;99.90;;;;;;5044964;28;19944;-75
2022/09/05 03:58:14;;;;;;;;;;;15.00;99.90;;;;;;5073702;28;20000;-74
2022/09/05 04:00:42;;;;;;;;;;;15.10;99.90;;;;;;5073529;28;20409;-75
2022/09/05 04:03:17;;;;;;;;;;;15.10;99.90;;;;;;5072934;28;19916;-74
2022/09/05 04:06:03;;;;;;;;;;;15.00;99.90;;;;;;5071813;28;19913;-75
2022/09/05 04:08:29;;;;;;;;;;;15.00;99.90;;;;;;5072969;28;19915;-74
2022/09/05 04:10:59;;;;;;;;;;;15.00;99.90;;;;;;5072860;28;19909;-75
2022/09/05 04:13:34;;;;;;;;;;;15.00;99.90;;;;;;5073622;28;19916;-74
2022/09/05 04:15:59;;;;;;;;;;;15.10;99.90;;;;;;5072659;28;19908;-75
2022/09/05 04:18:27;;;;;;;;;;;15.10;99.90;;;;;;5073437;28;19916;-74
2022/09/05 04:20:56;;;;;;;;;;;15.00;99.90;;;;;;5073073;28;19912;-76
2022/09/05 04:23:28;;;;;;;;;;;15.10;99.90;;;;;;5071932;28;20297;-77
2022/09/05 04:25:53;;;;;;;;;;;15.00;99.90;;;;;;5072362;28;19966;-75
2022/09/05 04:28:28;;;;;;;;;;;14.90;99.90;;;;;;5073463;28;19909;-75
2022/09/05 04:31:20;;;;;;;;;;;14.90;99.90;;;;;;5072681;28;19912;-75
2022/09/05 04:33:53;;;;;;;;;;;14.90;99.90;;;;;;5063772;28;20277;-77
2022/09/05 04:36:21;;;;;;;;;;;14.90;99.90;;;;;;5072910;28;20019;-76
2022/09/05 04:39:04;;;;;;;;;;;14.90;99.90;;;;;;5072305;28;20302;-76
2022/09/05 04:41:32;;;;;;;;;;;14.80;99.90;;;;;;5071943;28;19927;-76
2022/09/05 04:44:00;;;;;;;;;;;14.70;99.90;;;;;;5072598;28;20262;-76
2022/09/05 04:46:30;;;;;;;;;;;14.60;99.90;;;;;;5072742;28;19909;-76
2022/09/05 04:49:04;;;;;;;;;;;14.60;99.90;;;;;;5072246;28;19908;-76
2022/09/05 04:51:49;;;;;;;;;;;14.50;99.90;;;;;;5072875;28;20284;-76
2022/09/05 04:54:27;;;;;;;;;;;14.40;99.90;;;;;;5072882;28;19909;-76
2022/09/05 04:57:00;;;;;;;;;;;14.20;99.90;;;;;;5071210;28;20357;-75
2022/09/05 04:59:30;;;;;;;;;;;14.10;99.90;;;;;;5072958;28;20315;-75
2022/09/05 05:02:09;;;;;;;;;;;14.00;99.90;;;;;;5072223;28;19938;-75
2022/09/05 05:04:35;;;;;;;;;;;13.90;99.90;;;;;;5071656;28;20003;-74
2022/09/05 05:07:03;;;;;;;;;;;13.90;99.90;;;;;;5072016;28;19952;-74
2022/09/05 05:09:40;;;;;;;;;;;13.80;99.90;;;;;;5072420;28;20277;-75
2022/09/05 05:12:15;;;;;;;;;;;13.80;99.90;;;;;;5072274;28;19909;-75
2022/09/05 05:14:45;;;;;;;;;;;13.70;99.90;;;;;;5073049;28;20007;-75
2022/09/05 05:17:14;;;;;;;;;;;13.70;99.90;;;;;;5076713;28;20046;-75
2022/09/05 05:19:49;;;;;;;;;;;13.70;99.90;;;;;;5076506;28;20011;-75
2022/09/05 05:22:16;;;;;;;;;;;13.60;99.90;;;;;;5075319;28;19924;-74
2022/09/05 05:24:46;;;;;;;;;;;13.50;99.90;;;;;;5076398;28;19908;-74
2022/09/05 05:27:18;;;;;;;;;;;13.40;99.90;;;;;;5076580;28;20262;-74
2022/09/05 05:29:49;;;;;;;;;;;13.40;99.90;;;;;;5074848;28;20003;-75
2022/09/05 05:32:18;;;;;;;;;;;13.30;99.90;;;;;;5076026;28;19908;-75
2022/09/05 05:34:47;;;;;;;;;;;13.30;99.90;;;;;;5075887;28;20388;-75
2022/09/05 05:37:20;;;;;;;;;;;13.30;99.90;;;;;;5076348;28;20022;-75
2022/09/05 05:39:56;;;;;;;;;;;13.20;99.90;;;;;;5075796;28;19920;-74
2022/09/05 05:42:23;;;;;;;;;;;13.20;99.90;;;;;;5077240;28;19923;-74
2022/09/05 05:44:51;;;;;;;;;;;13.00;99.90;;;;;;5077443;28;20289;-76
2022/09/05 05:47:19;;;;;;;;;;;13.00;99.90;;;;;;5076145;28;19916;-74
2022/09/05 05:49:53;;;;;;;;;;;12.90;99.90;;;;;;5077293;28;19931;-75
2022/09/05 05:52:27;;;;;;;;;;;12.90;99.90;;;;;;5075023;28;19915;-75
2022/09/05 05:55:02;;;;;;;;;;;12.90;99.90;;;;;;5075139;28;20003;-74
2022/09/05 05:57:34;;;;;;;;;;;12.90;99.90;;;;;;5075812;28;20370;-75
2022/09/05 05:59:59;;;;;;;;;;;13.00;99.90;;;;;;5073945;28;19908;-75
2022/09/05 06:02:34;;;;;;;;;;;13.00;99.90;;;;;;5075782;28;19999;-75
2022/09/05 06:05:17;;;;;;;;;;;13.00;99.90;;;;;;5074096;28;19913;-75
2022/09/05 06:07:52;;;;;;;;;;;12.90;99.90;;;;;;5074632;28;19912;-75
2022/09/05 06:10:24;;;;;;;;;;;12.90;99.90;;;;;;5074477;28;19916;-75
2022/09/05 06:12:49;;;;;;;;;;;12.90;99.90;;;;;;5075166;28;19909;-74
2022/09/05 06:15:24;;;;;;;;;;;12.90;99.90;;;;;;5075390;28;19915;-75
2022/09/05 06:17:56;;;;;;;;;;;13.00;99.90;;;;;;5075008;28;19954;-76
2022/09/05 06:20:41;;;;;;;;;;;13.10;99.90;;;;;;5074402;28;19909;-76
2022/09/05 06:23:25;;;;;;;;;;;13.30;99.90;;;;;;5074595;28;20024;-76
2022/09/05 06:25:51;;;;;;;;;;;13.40;99.90;;;;;;5072800;28;20265;-76
2022/09/05 06:28:46;;;;;;;;;;;13.60;99.90;;;;;;5088613;28;19919;-76
2022/09/05 06:31:20;;;;;;;;;;;13.70;99.90;;;;;;5089853;28;19914;-76
2022/09/05 06:34:04;;;;;;;;;;;13.80;99.90;;;;;;5095090;28;19916;-74
2022/09/05 06:36:38;;;;;;;;;;;13.80;99.90;;;;;;5095422;28;19915;-75
2022/09/05 06:39:09;;;;;;;;;;;14.00;99.90;;;;;;5094182;28;19919;-75
2022/09/05 06:41:53;;;;;;;;;;;14.30;99.90;;;;;;5094338;28;19973;-76
2022/09/05 06:44:18;;;;;;;;;;;14.30;99.90;;;;;;5093720;28;19915;-76
2022/09/05 06:46:45;;;;;;;;;;;14.50;99.90;;;;;;5095537;28;19909;-75
2022/09/05 06:49:13;;;;;;;;;;;14.60;99.90;;;;;;5093161;28;20388;-76
2022/09/05 06:52:07;;;;;;;;;;;14.60;99.90;;;;;;5094847;28;19912;-76
2022/09/05 06:54:51;;;;;;;;;;;14.60;99.90;;;;;;5090460;28;20381;-76
2022/09/05 06:57:17;;;;;;;;;;;14.70;99.90;;;;;;5094571;28;20293;-77
2022/09/05 07:00:03;;;;;;;;;;;14.80;99.90;;;;;;5095083;28;19935;-75
2022/09/05 07:02:33;;;;;;;;;;;14.90;99.90;;;;;;5094056;28;19920;-75
2022/09/05 07:05:08;;;;;;;;;;;15.10;99.90;;;;;;5094033;28;20312;-75
2022/09/05 07:07:36;;;;;;;;;;;15.30;99.90;;;;;;5094629;28;19953;-75
2022/09/05 07:10:03;;;;;;;;;;;15.50;99.90;;;;;;5094107;28;19915;-75
2022/09/05 07:12:32;;;;;;;;;;;15.70;99.90;;;;;;5094552;28;20019;-75
2022/09/05 07:15:16;;;;;;;;;;;15.90;99.90;;;;;;5093941;28;19915;-74
2022/09/05 07:17:48;;;;;;;;;;;16.20;99.90;;;;;;5093010;28;20002;-75
2022/09/05 07:20:19;;;;;;;;;;;16.30;99.90;;;;;;5093807;28;19909;-74
2022/09/05 07:22:53;;;;;;;;;;;16.50;99.90;;;;;;5094445;28;19923;-74
2022/09/05 07:25:21;;;;;;;;;;;16.60;99.90;;;;;;5094358;28;20246;-73
2022/09/05 07:28:07;;;;;;;;;;;16.70;99.90;;;;;;5094239;28;19908;-75
2022/09/05 07:30:33;;;;;;;;;;;16.70;99.90;;;;;;5094361;28;19912;-74
2022/09/05 07:33:00;;;;;;;;;;;16.80;99.90;;;;;;5093918;28;19909;-74
2022/09/05 07:35:28;;;;;;;;;;;16.90;99.90;;;;;;5094290;28;20422;-76
2022/09/05 07:37:57;;;;;;;;;;;16.90;99.90;;;;;;5093676;28;19923;-75
2022/09/05 07:40:24;;;;;;;;;;;16.90;99.90;;;;;;5094009;28;19931;-75
2022/09/05 07:43:07;;;;;;;;;;;17.00;99.90;;;;;;5094200;28;20015;-76
2022/09/05 07:45:35;;;;;;;;;;;17.00;99.90;;;;;;5093843;28;19912;-75
2022/09/05 07:48:01;;;;;;;;;;;17.00;99.90;;;;;;5093513;28;19908;-75
2022/09/05 07:50:27;;;;;;;;;;;16.80;99.90;;;;;;5092451;28;20353;-75
2022/09/05 07:52:56;;;;;;;;;;;16.60;99.90;;;;;;5093802;28;20388;-75
2022/09/05 07:55:24;;;;;;;;;;;16.50;99.90;;;;;;5093924;28;19939;-75
2022/09/05 07:57:51;;;;;;;;;;;16.30;99.90;;;;;;5093478;28;20280;-75
2022/09/05 08:00:18;;;;;;;;;;;16.30;99.90;;;;;;5093022;28;19908;-75
2022/09/05 08:02:45;;;;;;;;;;;16.20;99.90;;;;;;5093693;28;19916;-75
2022/09/05 08:05:13;;;;;;;;;;;16.20;99.90;;;;;;5126171;27;20387;-74
2022/09/05 08:07:42;;;;;;;;;;;16.30;99.90;;;;;;5093815;28;20007;-75
2022/09/05 08:10:10;;;;;;;;;;;16.30;99.90;;;;;;5092730;28;19908;-75
2022/09/05 08:12:38;;;;;;;;;;;16.50;99.90;;;;;;5093943;28;20357;-75
2022/09/05 08:15:04;;;;;;;;;;;16.50;99.90;;;;;;5093200;28;19908;-75
2022/09/05 08:17:31;;;;;;;;;;;16.60;99.90;;;;;;5092743;28;19916;-75
2022/09/05 08:20:03;;;;;;;;;;;16.60;99.90;;;;;;5092244;28;20337;-75
2022/09/05 08:22:32;;;;;;;;;;;16.60;99.90;;;;;;5091538;28;19919;-75
2022/09/05 08:25:01;;;;;;;;;;;16.70;99.90;;;;;;5091075;28;19908;-75
2022/09/05 08:27:30;;;;;;;;;;;16.70;99.90;;;;;;5091567;28;19915;-75
2022/09/05 08:30:06;;;;;;;;;;;16.80;99.90;;;;;;5086498;28;19943;-75
2022/09/05 08:32:40;;;;;;;;;;;17.00;99.90;;;;;;5071563;28;19909;-76
2022/09/05 08:35:12;;;;;;;;;;;17.20;99.90;;;;;;5070565;28;19920;-75
2022/09/05 08:37:38;;;;;;;;;;;17.40;99.90;;;;;;5069991;28;19951;-73
2022/09/05 08:40:18;;;;;;;;;;;17.50;99.90;;;;;;5072157;28;19968;-74
2022/09/05 08:42:54;;;;;;;;;;;17.80;99.90;;;;;;5072014;28;19935;-74
2022/09/05 08:45:21;;;;;;;;;;;18.00;99.90;;;;;;5071102;28;19908;-75
2022/09/05 08:47:56;;;;;;;;;;;18.20;99.90;;;;;;5071581;28;19915;-75
2022/09/05 08:50:42;;;;;;;;;;;18.40;99.90;;;;;;5072679;28;19962;-75
2022/09/05 08:53:10;;;;;;;;;;;18.50;99.90;;;;;;5071466;28;19944;-74
2022/09/05 08:55:42;;;;;;;;;;;18.60;99.90;;;;;;5072504;28;19915;-75
2022/09/05 08:58:16;;;;;;;;;;;18.60;99.90;;;;;;5072352;28;19909;-74
2022/09/05 09:00:45;;;;;;;;;;;18.60;99.90;;;;;;5071477;28;20342;-74
2022/09/05 09:03:20;;;;;;;;;;;18.70;99.90;;;;;;5070750;28;19970;-75
2022/09/05 09:05:54;;;;;;;;;;;18.80;99.90;;;;;;5072627;28;19908;-74
2022/09/05 09:08:23;;;;;;;;;;;18.80;99.90;;;;;;5071625;28;19943;-74
2022/09/05 09:10:54;;;;;;;;;;;18.90;99.90;;;;;;5072135;28;19908;-74
2022/09/05 09:13:28;;;;;;;;;;;19.10;99.90;;;;;;5071877;28;19996;-75
2022/09/05 09:16:09;;;;;;;;;;;19.10;99.90;;;;;;5072386;28;20370;-75
2022/09/05 09:18:47;;;;;;;;;;;19.20;99.90;;;;;;5071997;28;19990;-75
2022/09/05 09:21:23;;;;;;;;;;;19.40;99.90;;;;;;5071765;28;19909;-74
2022/09/05 09:23:52;;;;;;;;;;;19.50;99.90;;;;;;5071320;28;20017;-74
2022/09/05 09:26:20;;;;;;;;;;;19.40;99.90;;;;;;5072104;28;20118;-73
2022/09/05 09:28:56;;;;;;;;;;;19.30;99.90;;;;;;5072620;28;19912;-75
2022/09/05 09:31:30;;;;;;;;;;;19.30;99.90;;;;;;5072791;28;19908;-74
2022/09/05 09:34:14;;;;;;;;;;;19.30;99.90;;;;;;5072345;28;19959;-74
2022/09/05 09:36:51;;;;;;;;;;;19.20;99.90;;;;;;5072425;28;19908;-76
2022/09/05 09:39:25;;;;;;;;;;;19.10;99.90;;;;;;5072028;28;19931;-75
2022/09/05 09:42:02;;;;;;;;;;;19.30;99.90;;;;;;5071826;28;20007;-75
2022/09/05 09:44:46;;;;;;;;;;;19.30;99.90;;;;;;5072304;28;19908;-74
2022/09/05 09:47:13;;;;;;;;;;;19.20;99.90;;;;;;5071664;28;20273;-74
2022/09/05 09:49:42;;;;;;;;;;;19.10;99.90;;;;;;5072390;28;19908;-74
2022/09/05 09:52:20;;;;;;;;;;;19.10;99.90;;;;;;5071802;28;19908;-75
2022/09/05 09:55:06;;;;;;;;;;;19.20;99.90;;;;;;5072261;28;19909;-74
2022/09/05 09:57:59;;;;;;;;;;;19.10;99.90;;;;;;5072179;28;19931;-74
2022/09/05 10:00:31;;;;;;;;;;;19.20;99.90;;;;;;5071665;28;19919;-74
2022/09/05 10:03:01;;;;;;;;;;;19.40;99.90;;;;;;5074114;28;19916;-74
2022/09/05 10:05:45;;;;;;;;;;;19.50;99.90;;;;;;5075520;28;20330;-73
2022/09/05 10:08:25;;;;;;;;;;;19.60;99.90;;;;;;5075211;28;19943;-74
2022/09/05 10:11:10;;;;;;;;;;;19.60;99.90;;;;;;5073808;28;20444;-75
2022/09/05 10:13:41;;;;;;;;;;;19.60;99.90;;;;;;5075036;28;20357;-76
2022/09/05 10:16:22;;;;;;;;;;;19.70;99.90;;;;;;5074612;28;19909;-76
2022/09/05 10:18:59;;;;;;;;;;;19.70;99.90;;;;;;5074903;28;19939;-76
2022/09/05 10:21:49;;;;;;;;;;;19.80;99.90;;;;;;5074539;28;19916;-75
2022/09/05 10:24:18;;;;;;;;;;;19.90;99.90;;;;;;5073980;28;20390;-75
2022/09/05 10:26:43;;;;;;;;;;;19.70;99.90;;;;;;5073432;28;20315;-74
2022/09/05 10:29:19;;;;;;;;;;;19.70;99.90;;;;;;5072960;28;19908;-74
2022/09/05 10:31:58;;;;;;;;;;;19.60;99.90;;;;;;5074472;28;19908;-74
2022/09/05 10:34:28;;;;;;;;;;;19.60;99.90;;;;;;5074151;28;20054;-74
2022/09/05 10:37:01;;;;;;;;;;;19.60;99.90;;;;;;5074299;28;19915;-74
2022/09/05 10:39:26;;;;;;;;;;;19.60;99.90;;;;;;5074451;28;19908;-73
2022/09/05 10:41:52;;;;;;;;;;;19.60;99.90;;;;;;5074221;28;20392;-74
2022/09/05 10:44:25;;;;;;;;;;;19.60;99.90;;;;;;5072845;28;20331;-75
2022/09/05 10:47:10;;;;;;;;;;;19.60;99.90;;;;;;5074454;28;19909;-73
2022/09/05 10:49:43;;;;;;;;;;;19.70;99.90;;;;;;5074249;28;19917;-74
2022/09/05 10:52:09;;;;;;;;;;;19.70;99.90;;;;;;5074373;28;19947;-75
2022/09/05 10:54:52;;;;;;;;;;;19.80;99.90;;;;;;5074830;28;19970;-75
2022/09/05 10:57:24;;;;;;;;;;;19.70;99.90;;;;;;5073946;28;20368;-74
2022/09/05 10:59:56;;;;;;;;;;;19.80;99.90;;;;;;5074422;28;19916;-74
2022/09/05 11:02:24;;;;;;;;;;;19.80;99.90;;;;;;5072788;28;19913;-75
2022/09/05 11:04:59;;;;;;;;;;;19.90;99.90;;;;;;5074105;28;20327;-75
2022/09/05 11:07:27;;;;;;;;;;;19.90;99.90;;;;;;5074165;28;20386;-74
2022/09/05 11:10:11;;;;;;;;;;;20.00;99.90;;;;;;5074357;28;19908;-75
2022/09/05 11:12:39;;;;;;;;;;;20.00;99.90;;;;;;5073828;28;19909;-75
2022/09/05 11:15:20;;;;;;;;;;;19.90;99.90;;;;;;5073651;28;20117;-75
2022/09/05 11:17:51;;;;;;;;;;;19.80;99.90;;;;;;5073158;28;20011;-75
2022/09/05 11:20:35;;;;;;;;;;;19.80;99.90;;;;;;5073452;28;19908;-75
2022/09/05 11:23:08;;;;;;;;;;;19.80;99.90;;;;;;5071622;28;20326;-75
2022/09/05 11:25:35;;;;;;;;;;;19.80;99.90;;;;;;5074231;28;19915;-75
2022/09/05 11:28:08;;;;;;;;;;;19.70;99.90;;;;;;5074176;28;20338;-75
2022/09/05 11:30:39;;;;;;;;;;;19.70;99.90;;;;;;5073833;28;19908;-76
2022/09/05 11:33:08;;;;;;;;;;;19.70;99.90;;;;;;5073289;28;19932;-74
2022/09/05 11:35:40;;;;;;;;;;;19.70;99.90;;;;;;5074157;28;20007;-75
2022/09/05 11:38:08;;;;;;;;;;;19.70;99.90;;;;;;5055631;28;20368;-74
2022/09/05 11:40:34;;;;;;;;;;;19.70;99.90;;;;;;5073623;28;19921;-75
2022/09/05 11:43:08;;;;;;;;;;;19.70;99.90;;;;;;5072982;28;19939;-75
2022/09/05 11:45:37;;;;;;;;;;;19.70;99.90;;;;;;5073537;28;19909;-74
2022/09/05 11:48:21;;;;;;;;;;;19.60;99.90;;;;;;5073911;28;19940;-74
2022/09/05 11:50:59;;;;;;;;;;;19.60;99.90;;;;;;5073708;28;19951;-74
2022/09/05 11:53:41;;;;;;;;;;;19.70;99.90;;;;;;5073164;28;19904;-74
2022/09/05 11:56:10;;;;;;;;;;;19.60;99.90;;;;;;5073228;28;19912;-74
2022/09/05 11:58:36;;;;;;;;;;;19.60;99.90;;;;;;5073312;28;19948;-75
2022/09/05 12:01:04;;;;;;;;;;;19.60;99.90;;;;;;5073375;28;19958;-75
2022/09/05 12:03:40;;;;;;;;;;;19.60;99.90;;;;;;5072126;28;19923;-75
2022/09/05 12:06:24;;;;;;;;;;;19.60;99.90;;;;;;5072899;28;19913;-75
2022/09/05 12:08:53;;;;;;;;;;;19.60;99.90;;;;;;5073241;28;20350;-74
2022/09/05 12:11:28;;;;;;;;;;;19.70;99.90;;;;;;5072475;28;19916;-75
2022/09/05 12:13:53;;;;;;;;;;;19.70;99.90;;;;;;5073193;28;19913;-74
2022/09/05 12:16:31;;;;;;;;;;;19.70;99.90;;;;;;5072850;28;19916;-75
2022/09/05 12:19:09;;;;;;;;;;;19.80;99.90;;;;;;5072893;28;19917;-75
2022/09/05 12:21:41;;;;;;;;;;;19.90;99.90;;;;;;5072950;28;19952;-76
2022/09/05 12:24:13;;;;;;;;;;;19.90;99.90;;;;;;5071447;28;19913;-75
2022/09/05 12:26:45;;;;;;;;;;;19.80;99.90;;;;;;5072660;28;20384;-74
2022/09/05 12:29:17;;;;;;;;;;;19.80;99.90;;;;;;5070106;28;19916;-75
2022/09/05 12:31:45;;;;;;;;;;;19.80;99.90;;;;;;5073089;28;19995;-75
2022/09/05 12:34:17;;;;;;;;;;;19.80;99.90;;;;;;5072245;28;19916;-75
2022/09/05 12:36:48;;;;;;;;;;;19.80;99.90;;;;;;5071342;28;20242;-74
2022/09/05 12:39:25;;;;;;;;;;;19.80;99.90;;;;;;5072732;28;19958;-74
2022/09/05 12:42:02;;;;;;;;;;;19.90;99.90;;;;;;5072947;28;19983;-74
2022/09/05 12:44:53;;;;;;;;;;;19.90;99.90;;;;;;5069037;28;20256;-75
2022/09/05 12:47:21;;;;;;;;;;;19.90;99.90;;;;;;5072019;28;19909;-75
2022/09/05 12:49:55;;;;;;;;;;;19.90;99.90;;;;;;5072022;28;20277;-75
2022/09/05 12:52:35;;;;;;;;;;;19.90;99.90;;;;;;5071680;28;19908;-75
2022/09/05 12:55:08;;;;;;;;;;;19.80;99.90;;;;;;5072071;28;20350;-76
2022/09/05 12:57:34;;;;;;;;;;;19.70;99.90;;;;;;5072345;28;20015;-74
2022/09/05 13:00:08;;;;;;;;;;;19.50;99.90;;;;;;5072358;28;19908;-74
2022/09/05 13:02:36;;;;;;;;;;;19.30;99.90;;;;;;5071836;28;19966;-74
2022/09/05 13:05:07;;;;;;;;;;;19.20;99.90;;;;;;5071361;28;20003;-74
2022/09/05 13:07:41;;;;;;;;;;;19.20;99.90;;;;;;5071733;28;19917;-76
2022/09/05 13:10:13;;;;;;;;;;;19.30;99.90;;;;;;5071468;28;19916;-74
2022/09/05 13:13:07;;;;;;;;;;;19.30;99.90;;;;;;5071763;28;19955;-75
2022/09/05 13:15:37;;;;;;;;;;;19.10;99.90;;;;;;5062356;28;19919;-75
2022/09/05 13:18:06;;;;;;;;;;;19.10;99.90;;;;;;5072125;28;19912;-75
2022/09/05 13:20:34;;;;;;;;;;;19.20;99.90;;;;;;5071512;28;20002;-75
2022/09/05 13:23:15;;;;;;;;;;;19.20;99.90;;;;;;5070862;28;19919;-74
2022/09/05 13:25:43;;;;;;;;;;;19.20;99.90;;;;;;5072295;28;19952;-74
2022/09/05 13:28:09;;;;;;;;;;;19.20;99.90;;;;;;5070379;28;19947;-75
2022/09/05 13:30:37;;;;;;;;;;;19.10;99.90;;;;;;5070619;28;19999;-74
2022/09/05 13:33:09;;;;;;;;;;;19.10;99.90;;;;;;5071832;28;19962;-74
2022/09/05 13:35:38;;;;;;;;;;;19.10;99.90;;;;;;5073994;28;19916;-74
2022/09/05 13:38:23;;;;;;;;;;;19.20;99.90;;;;;;5075393;28;19908;-73
2022/09/05 13:40:56;;;;;;;;;;;19.30;99.90;;;;;;5075617;28;20035;-75
2022/09/05 13:43:28;;;;;;;;;;;19.20;99.90;;;;;;5074553;28;19924;-72
2022/09/05 13:46:10;;;;;;;;;;;19.20;99.90;;;;;;5075853;28;19971;-74
2022/09/05 13:48:36;;;;;;;;;;;19.20;99.90;;;;;;5076176;28;19955;-75
2022/09/05 13:51:28;;;;;;;;;;;19.20;99.90;;;;;;5074977;28;19948;-74
2022/09/05 13:54:05;;;;;;;;;;;19.30;99.90;;;;;;5073000;28;19920;-75
2022/09/05 13:56:31;;;;;;;;;;;19.40;99.90;;;;;;5074698;28;19935;-75
2022/09/05 13:59:00;;;;;;;;;;;19.50;99.90;;;;;;5057552;28;20072;-75
2022/09/05 14:01:32;;;;;;;;;;;19.40;99.90;;;;;;5074446;28;20373;-74
2022/09/05 14:04:04;;;;;;;;;;;19.40;99.90;;;;;;5075103;28;20007;-75
2022/09/05 14:06:46;;;;;;;;;;;19.50;99.90;;;;;;5074362;28;19912;-73
2022/09/05 14:09:24;;;;;;;;;;;19.50;99.90;;;;;;5074595;28;19915;-74
2022/09/05 14:11:59;;;;;;;;;;;19.60;99.90;;;;;;5075068;28;19909;-74
2022/09/05 14:14:30;;;;;;;;;;;19.70;99.90;;;;;;5074449;28;19916;-74
2022/09/05 14:16:59;;;;;;;;;;;19.60;99.90;;;;;;5075409;28;20364;-74
2022/09/05 14:22:09;;;;;;;;;;;19.60;99.90;;;;;;5074157;28;19919;-75
2022/09/05 14:24:46;;;;;;;;;;;19.60;99.90;;;;;;5074298;28;19912;-74
2022/09/05 14:27:16;;;;;;;;;;;19.60;99.90;;;;;;5074282;28;20041;-74
2022/09/05 14:29:49;;;;;;;;;;;19.60;99.90;;;;;;5074391;28;20392;-75
2022/09/05 14:32:18;;;;;;;;;;;19.60;99.90;;;;;;5074184;28;19909;-74
2022/09/05 14:34:55;;;;;;;;;;;19.60;99.90;;;;;;5073173;28;20281;-74
2022/09/05 14:37:40;;;;;;;;;;;19.60;99.90;;;;;;5074792;28;19961;-74
2022/09/05 14:40:06;;;;;;;;;;;19.60;99.90;;;;;;5072767;28;19920;-74
2022/09/05 14:42:35;;;;;;;;;;;19.50;99.90;;;;;;5074734;28;20384;-74
2022/09/05 14:45:18;;;;;;;;;;;19.50;99.90;;;;;;5074815;28;19955;-74
2022/09/05 14:47:44;;;;;;;;;;;19.60;99.90;;;;;;5074885;28;20361;-75
2022/09/05 14:50:29;;;;;;;;;;;19.60;99.90;;;;;;5079601;28;19916;-76
2022/09/05 14:53:13;;;;;;;;;;;19.60;99.90;;;;;;5080586;28;20350;-76
2022/09/05 14:55:50;;;;;;;;;;;19.60;99.90;;;;;;5075946;28;20303;-75